Latest Weather Observations for Normanton

IDQ60801

Issued at 12:32 pm EST Saturday 1 October 2022 (issued every 10 minutes, with the page automatically refreshed every 10 minutes)

About weather observations | Map of weather stations | Latest weather observations for QLD | Other Formats
Station Details ID: 029063 Name: NORMANTON AIRPORT Lat: -17.69 Lon: 141.07 Height: 18.42 m
Data from the previous 72 hours. | See also: Recent months at Normanton
Date/Time
EST
Temp
°C
App
Temp
°C
Dew
Point
°C
Rel
Hum
%
Delta-T
°C
Wind Press
QNH
hPa
Press
MSL
hPa
Rain since
9am
mm
Dir  Spd
km/h
Gust
km/h
Spd
kts
Gust
kts
01/12:30pm 31.7 29.8 15.2 36 10.2 NNW 19 28 10 15 1011.0 1010.8 0.0
01/12:00pm 31.5 29.5 15.0 36 10.2 N 19 28 10 15 1011.4 1011.2 0.0
01/11:30am 31.1 29.6 16.3 41 9.3 N 19 28 10 15 1012.1 1011.9 0.0
01/11:00am 30.4 28.7 15.7 41 9.1 N 19 30 10 16 1012.4 1012.2 0.0
01/10:30am 30.3 29.2 16.3 42 8.7 N 17 28 9 15 1012.6 1012.4 0.0
01/10:00am 29.3 27.3 15.4 42 8.5 N 20 28 11 15 1012.9 1012.7 0.0
01/09:30am 29.1 26.5 13.3 37 9.4 NNE 19 26 10 14 1012.8 1012.7 0.0
01/09:00am 27.9 25.5 10.1 33 10.0 ENE 13 24 7 13 1012.9 1012.8 0.0
01/08:30am 26.2 24.2 8.7 33 9.5 ESE 9 15 5 8 1012.9 1012.8 0.0
01/08:00am 25.5 22.7 7.1 31 9.7 SE 11 15 6 8 1012.5 1012.4 0.0
01/07:30am 24.1 21.0 5.5 30 9.4 SSE 11 17 6 9 1012.2 1012.1 0.0
01/07:00am 22.6 19.1 5.5 33 8.6 S 13 17 7 9 1012.1 1012.0 0.0
01/06:30am 21.7 18.1 5.2 34 8.2 SSE 13 15 7 8 1011.7 1011.6 0.0
01/06:00am 21.9 17.9 4.9 33 8.4 SSE 15 19 8 10 1011.3 1011.2 0.0
01/05:30am 21.9 18.3 4.9 33 8.4 S 13 15 7 8 1010.9 1010.8 0.0
01/05:00am 21.9 18.3 4.9 33 8.4 SSE 13 17 7 9 1010.8 1010.7 0.0
01/04:30am 22.2 18.9 4.7 32 8.6 SE 11 15 6 8 1010.6 1010.5 0.0
01/04:00am 23.3 18.8 4.3 29 9.4 S 17 20 9 11 1010.2 1010.1 0.0
01/03:30am 23.9 19.4 4.3 28 9.7 S 17 20 9 11 1010.4 1010.3 0.0
01/03:00am 24.3 20.2 4.1 27 10.0 S 15 17 8 9 1010.5 1010.4 0.0
01/02:30am 25.2 20.6 3.8 25 10.6 S 17 20 9 11 1010.5 1010.4 0.0
01/02:00am 25.7 20.7 3.6 24 10.9 S 19 24 10 13 1011.0 1010.9 0.0
01/01:30am 25.8 21.2 3.7 24 11.0 S 17 20 9 11 1011.2 1011.1 0.0
01/01:00am 25.9 21.3 3.8 24 11.0 S 17 20 9 11 1011.4 1011.3 0.0
01/12:30am 26.0 21.7 3.3 23 11.2 S 15 20 8 11 1011.4 1011.3 0.0
01/12:00am 26.4 22.5 3.6 23 11.3 S 13 17 7 9 1011.8 1011.7 0.0
 
Date/Time
EST
Temp
°C
App
Temp
°C
Dew
Point
°C
Rel
Hum
%
Delta-T
°C
Wind Press
QNH
hPa
Press
MSL
hPa
Rain since
9am
mm
Dir  Spd
km/h
Gust
km/h
Spd
kts
Gust
kts
30/11:30pm 27.0 22.2 2.8 21 11.9 S 17 20 9 11 1011.9 1011.8 0.0
30/11:00pm 27.6 22.9 3.3 21 12.1 S 17 20 9 11 1012.3 1012.2 0.0
30/10:30pm 28.0 22.9 3.0 20 12.4 S 19 24 10 13 1012.0 1011.9 0.0
30/10:00pm 28.7 23.4 2.8 19 12.9 S 20 28 11 15 1011.8 1011.7 0.0
30/09:30pm 28.7 25.0 6.1 24 11.9 SSW 15 17 8 9 1011.7 1011.6 0.0
30/09:00pm 29.1 25.8 6.5 24 12.0 S 13 15 7 8 1011.4 1011.3 0.0
30/08:30pm 29.7 26.5 7.0 24 12.2 S 13 17 7 9 1011.3 1011.2 0.0
30/08:00pm 30.3 27.3 7.5 24 12.4 SSW 13 15 7 8 1011.2 1011.1 0.0
30/07:30pm 31.3 28.3 7.7 23 12.9 SSW 13 17 7 9 1010.6 1010.5 0.0
30/07:00pm 32.3 28.8 7.2 21 13.7 S 15 20 8 11 1010.3 1010.2 0.0
30/06:30pm 33.1 29.6 7.1 20 14.2 S 15 22 8 12 1009.9 1009.8 0.0
30/06:00pm 34.0 29.7 7.1 19 14.8 S 19 24 10 13 1009.6 1009.5 0.0
30/05:30pm 34.3 30.6 8.1 20 14.7 S 17 26 9 14 1009.3 1009.2 0.0
30/05:00pm 34.8 33.1 8.5 20 14.9 S 7 15 4 8 1009.3 1009.2 0.0
30/04:30pm 35.0 32.0 9.4 21 14.7 S 15 24 8 13 1009.4 1009.3 0.0
30/04:00pm 35.1 33.3 9.5 21 14.7 SSE 9 17 5 9 1009.4 1009.3 0.0
30/03:30pm 34.8 33.0 9.3 21 14.6 WSW 9 24 5 13 1009.6 1009.5 0.0
30/03:00pm 34.7 33.0 9.9 22 14.3 SE 9 19 5 10 1010.0 1009.9 0.0
30/02:30pm 34.0 31.9 9.9 23 13.9 E 11 22 6 12 1010.5 1010.4 0.0
30/02:00pm 34.8 32.7 9.9 22 14.4 E 11 20 6 11 1010.9 1010.8 0.0
30/01:30pm 34.5 32.4 11.0 24 13.8 S 13 20 7 11 1011.6 1011.5 0.0
30/01:00pm 32.8 31.4 10.8 26 12.8 E 9 20 5 11 1012.4 1012.3 0.0
30/12:30pm 33.7 32.5 11.5 26 13.1 N 9 26 5 14 1012.9 1012.8 0.0
30/12:00pm 32.3 29.9 11.5 28 12.2 E 15 28 8 15 1013.6 1013.5 0.0
30/11:30am 32.3 30.8 13.0 31 11.6 E 13 24 7 13 1014.1 1014.0 0.0
30/11:00am 31.1 28.7 12.5 32 11.0 E 17 28 9 15 1014.4 1014.3 0.0
30/10:30am 31.5 29.9 12.8 32 11.1 E 13 28 7 15 1014.8 1014.7 0.0
30/10:00am 30.3 28.0 13.1 34 10.2 E 17 28 9 15 1015.1 1015.0 0.0
30/09:30am 28.9 26.4 12.3 36 9.7 ESE 17 28 9 15 1015.3 1015.2 0.0
30/09:00am 28.0 25.6 11.5 35 9.5 ESE 15 20 8 11 1015.4 1015.3 0.0
30/08:30am 26.1 22.7 9.0 34 9.3 ESE 17 24 9 13 1015.4 1015.3 0.0
30/08:00am 24.8 20.9 7.0 32 9.3 SE 17 24 9 13 1015.4 1015.3 0.0
30/07:30am 23.1 19.0 6.0 33 8.7 SSE 17 24 9 13 1015.1 1015.0 0.0
30/07:00am 21.5 18.5 6.2 37 7.7 SSE 11 17 6 9 1014.9 1014.8 0.0
30/06:30am 20.8 17.1 6.4 39 7.3 SSE 15 20 8 11 1014.4 1014.3 0.0
30/06:00am 20.7 16.6 6.3 39 7.2 SSE 17 20 9 11 1014.1 1014.0 0.0
30/05:30am 21.0 17.0 6.5 39 7.3 SSE 17 20 9 11 1013.7 1013.6 0.0
30/05:00am 21.4 17.5 6.9 39 7.4 SSE 17 22 9 12 1013.7 1013.6 0.0
30/04:30am 21.8 17.9 7.2 39 7.5 S 17 20 9 11 1013.6 1013.5 0.0
30/04:00am 22.1 18.3 7.5 39 7.6 S 17 20 9 11 1013.6 1013.5 0.0
30/03:30am 22.4 18.4 8.1 40 7.5 S 19 24 10 13 1013.5 1013.4 0.0
30/03:00am 22.4 18.6 9.2 43 7.1 S 19 22 10 12 1013.8 1013.7 0.0
30/02:30am 22.7 18.8 9.5 43 7.1 S 20 24 11 13 1013.8 1013.7 0.0
30/02:00am 22.7 19.5 9.8 44 7.0 S 17 19 9 10 1013.9 1013.8 0.0
30/01:30am 23.5 20.7 9.9 42 7.4 S 15 20 8 11 1014.1 1014.0 0.0
30/01:00am 23.8 21.3 9.8 41 7.6 SSE 13 19 7 10 1014.5 1014.4 0.0
30/12:30am 24.2 21.0 9.8 40 7.9 S 17 20 9 11 1014.6 1014.5 0.0
30/12:00am 24.5 21.7 10.0 40 8.0 S 15 20 8 11 1014.7 1014.6 0.0
 
Date/Time
EST
Temp
°C
App
Temp
°C
Dew
Point
°C
Rel
Hum
%
Delta-T
°C
Wind Press
QNH
hPa
Press
MSL
hPa
Rain since
9am
mm
Dir  Spd
km/h
Gust
km/h
Spd
kts
Gust
kts
29/11:30pm 24.5 22.3 10.8 42 7.6 SSW 13 17 7 9 1015.0 1014.9 0.0
29/11:00pm 25.1 22.5 10.6 40 8.1 S 15 20 8 11 1015.1 1015.0 0.0
29/10:30pm 25.5 23.3 10.9 40 8.2 S 13 17 7 9 1015.0 1014.9 0.0
29/10:00pm 25.9 23.7 10.9 39 8.4 SSW 13 15 7 8 1014.7 1014.6 0.0
29/09:30pm 26.0 24.4 11.4 40 8.3 SSW 11 13 6 7 1014.4 1014.3 0.0
29/09:00pm 26.8 25.0 10.9 37 9.0 SSW 11 15 6 8 1014.0 1013.9 0.0
29/08:30pm 27.9 25.6 10.6 34 9.8 SSW 13 15 7 8 1013.7 1013.6 0.0
29/08:00pm 28.3 25.9 10.0 32 10.3 S 13 17 7 9 1013.3 1013.2 0.0
29/07:30pm 28.9 26.6 10.6 32 10.4 S 13 15 7 8 1013.0 1012.9 0.0
29/07:00pm 29.7 27.1 10.8 31 10.8 S 15 20 8 11 1012.6 1012.5 0.0
29/06:30pm 30.5 26.9 10.5 29 11.4 S 20 28 11 15 1012.1 1012.0 0.0
29/06:00pm 31.3 27.2 10.1 27 12.1 SSE 22 32 12 17 1011.9 1011.8 0.0
29/05:30pm 31.9 27.8 10.0 26 12.5 S 22 32 12 17 1011.6 1011.5 0.0
29/05:00pm 31.8 27.6 11.0 28 12.1 S 24 35 13 19 1011.5 1011.4 0.0
29/04:30pm 32.0 29.2 11.2 28 12.1 SSE 17 30 9 16 1011.7 1011.6 0.0
29/04:00pm 32.1 28.9 11.8 29 11.9 S 20 32 11 17 1011.8 1011.7 0.0
29/03:30pm 32.1 28.9 11.8 29 11.9 SSE 20 37 11 20 1011.9 1011.8 0.0
29/03:00pm 31.7 28.5 12.0 30 11.6 SSE 20 30 11 16 1012.4 1012.3 0.0
29/02:30pm 31.2 27.4 13.5 34 10.6 SSE 26 39 14 21 1012.6 1012.5 0.0
29/02:00pm 31.1 28.6 13.4 34 10.6 SSE 19 33 10 18 1013.2 1013.1 0.0
29/01:30pm 30.8 28.3 15.2 38 9.6 SE 22 33 12 18 1013.4 1013.3 0.0
29/01:00pm 29.5 28.0 15.2 41 8.8 SE 17 30 9 16 1013.8 1013.7 0.0
29/12:30pm 29.7 27.8 15.8 43 8.6 SE 20 39 11 21 1014.3 1014.2 0.0
29/12:00pm 29.0 26.6 15.5 44 8.3 SSE 22 35 12 19 1014.8 1014.7 0.0
29/11:30am 28.0 25.9 15.3 46 7.7 SE 20 33 11 18 1015.3 1015.2 0.0
29/11:00am 27.3 25.6 16.3 51 6.8 SE 20 32 11 17 1015.6 1015.5 0.0
29/10:30am 26.8 25.2 16.4 53 6.4 ESE 20 32 11 17 1016.0 1015.9 0.0
29/10:00am 25.9 25.4 17.8 61 5.1 SE 17 28 9 15 1016.3 1016.2 0.0
29/09:30am 24.5 23.7 18.0 67 4.1 S 19 24 10 13 1016.5 1016.4 0.0
29/09:00am 23.6 23.7 18.3 72 3.3 SSE 15 26 8 14 1016.3 1016.2 4.2
29/08:30am 22.7 23.4 18.9 79 2.4 SE 13 20 7 11 1016.0 1015.9 4.2
29/08:11am 21.7 21.5 18.5 82 2.0 SE 17 20 9 11 1015.9 1015.8 4.2
29/08:00am 21.3 21.4 18.3 83 1.9 SE 15 24 8 13 1015.8 1015.7 4.2
29/07:33am 21.0 21.4 19.1 89 1.2 SSE 15 22 8 12 1015.8 1015.7 4.2
29/07:30am 20.7 20.9 18.6 88 1.3 SSE 15 20 8 11 1015.7 1015.6 4.2
29/07:00am 20.0 21.0 18.7 92 0.8 SSE 11 17 6 9 1015.5 1015.4 4.2
29/06:30am 19.6 20.6 18.6 94 0.6 SE 11 17 6 9 1015.1 1015.0 4.2
29/06:12am 19.7 20.3 18.7 94 0.6 SSE 13 17 7 9 1014.9 1014.8 4.2
29/06:00am 19.8 20.4 18.6 93 0.7 SSE 13 19 7 10 1014.8 1014.7 4.2
29/05:44am 19.8 21.3 18.8 94 0.6 SE 9 13 5 7 1014.6 1014.5 4.2
29/05:30am 19.9 20.9 18.6 92 0.8 SE 11 17 6 9 1014.4 1014.3 4.2
29/05:16am 19.9 20.5 18.6 92 0.8 SSE 13 19 7 10 1014.3 1014.2 4.2
29/05:00am 20.0 21.1 18.8 93 0.8 SSE 11 17 6 9 1014.2 1014.1 4.2
29/04:30am 20.0 21.5 18.8 93 0.8 SE 9 17 5 9 1014.3 1014.2 4.2
29/04:00am 20.1 19.9 18.6 91 0.9 SE 17 24 9 13 1014.3 1014.2 4.2
29/03:30am 20.0 20.8 19.0 94 0.6 SE 13 20 7 11 1014.1 1014.0 4.2
29/03:00am 19.9 20.3 18.9 94 0.6 SE 15 20 8 11 1014.1 1014.0 4.2
29/02:30am 20.1 20.3 19.4 96 0.4 SSE 17 24 9 13 1014.1 1014.0 4.2
29/02:00am 19.9 19.7 19.4 97 0.3 SSE 19 22 10 12 1013.8 1013.7 4.2
29/01:33am 19.7 19.9 19.4 98 0.2 SSE 17 20 9 11 1014.0 1013.9 4.2
29/01:30am 19.7 20.2 19.2 97 0.3 SSE 15 20 8 11 1014.0 1013.9 4.2
29/01:00am 19.7 21.0 19.2 97 0.3 SE 11 17 6 9 1014.5 1014.4 4.2
29/12:52am 19.7 20.6 19.2 97 0.3 SE 13 20 7 11 1014.5 1014.4 4.2
29/12:30am 19.6 18.8 19.3 98 0.2 SSE 22 30 12 16 1014.5 1014.4 4.2
29/12:00am 19.7 18.6 19.5 99 0.1 SSE 24 32 13 17 1014.5 1014.4 4.2
 
Date/Time
EST
Temp
°C
App
Temp
°C
Dew
Point
°C
Rel
Hum
%
Delta-T
°C
Wind Press
QNH
hPa
Press
MSL
hPa
Rain since
9am
mm
Dir  Spd
km/h
Gust
km/h
Spd
kts
Gust
kts
28/11:35pm 19.6 19.4 19.4 99 0.1 SSE 19 26 10 14 1014.9 1014.8 4.2
28/11:30pm 19.6 19.2 19.4 99 0.1 SSE 20 32 11 17 1014.8 1014.7 4.2
28/11:00pm 19.9 20.6 19.7 99 0.1 SSE 15 22 8 12 1015.5 1015.4 3.8
28/10:54pm 19.6 20.1 19.3 98 0.2 SSE 15 19 8 10 1015.4 1015.3 3.6
28/10:38pm 19.5 20.6 18.8 96 0.4 SE 11 19 6 10 1015.4 1015.3 3.0
28/10:30pm 19.8 20.1 18.8 94 0.6 SSE 15 20 8 11 1015.5 1015.4 1.2
28/10:00pm 20.5 20.1 18.1 86 1.5 S 17 26 9 14 1015.2 1015.1 0.2
28/09:30pm 21.7 20.1 16.6 73 3.1 SSE 20 26 11 14 1015.2 1015.1 0.0
28/09:00pm 22.3 18.8 15.6 66 4.0 SSE 28 35 15 19 1014.8 1014.7 0.0
28/08:30pm 22.4 19.3 15.5 65 4.1 S 26 33 14 18 1014.8 1014.7 0.0
28/08:00pm 23.2 18.6 15.0 60 4.9 SSE 33 43 18 23 1014.5 1014.4 0.0
28/07:30pm 23.0 18.4 15.1 61 4.7 S 33 48 18 26 1014.2 1014.1 0.0
28/07:00pm 23.7 16.8 14.4 56 5.5 S 44 65 24 35 1013.3 1013.2 0.0
28/06:52pm 24.0 17.1 14.1 54 5.8 S 43 57 23 31 1013.2 1013.1 0.0
28/06:30pm 24.7 18.5 13.9 51 6.4 SSW 39 50 21 27 1012.6 1012.5 0.0
28/06:08pm 27.6 21.6 10.8 35 9.5 S 33 52 18 28 1012.2 1012.1 0.0
28/06:00pm 28.2 22.1 10.4 33 10.1 S 33 46 18 25 1011.9 1011.8 0.0
28/05:30pm 29.9 23.7 9.9 29 11.3 S 33 48 18 26 1011.3 1011.2 0.0
28/05:00pm 30.1 24.3 9.6 28 11.5 S 30 39 16 21 1011.1 1011.0 0.0
28/04:30pm 30.3 24.0 9.8 28 11.6 S 33 39 18 21 1011.2 1011.1 0.0
28/04:00pm 30.5 24.8 9.9 28 11.7 SSE 30 41 16 22 1010.9 1010.8 0.0
28/03:30pm 30.5 23.9 9.9 28 11.7 S 35 48 19 26 1010.8 1010.7 0.0
28/03:00pm 31.0 25.3 9.8 27 12.0 SSE 30 43 16 23 1011.0 1010.9 0.0
28/02:30pm 30.0 25.3 10.5 30 11.1 SSE 26 37 14 20 1011.3 1011.2 0.0
28/02:00pm 31.1 27.0 11.5 30 11.4 SE 24 37 13 20 1011.5 1011.4 0.0
28/01:46pm 30.8 25.9 11.2 30 11.3 SSE 28 46 15 25 1011.6 1011.5 0.0
28/01:30pm 31.3 26.5 11.7 30 11.5 SSE 28 41 15 22 1011.5 1011.4 0.0
28/01:00pm 30.9 25.9 12.3 32 11.0 SSE 30 46 16 25 1011.9 1011.8 0.0
28/12:52pm 30.7 26.0 12.1 32 10.9 SE 28 46 15 25 1011.8 1011.7 0.0

Other formats

Comma delimited format used in spreadsheet applications
http://www.bom.gov.au/fwo/IDQ60801/IDQ60801.94266.axf

JavaScript Object Notation format (JSON) in row-major order
http://www.bom.gov.au/fwo/IDQ60801/IDQ60801.94266.json

Data quality

Most of these data are generated automatically and are frequently updated. Quality checks on data are not normally performed. It is possible for incorrect values to appear. Refer to information at About Latest Weather Observations and please check the disclaimer before using these data.